Time;durP1;ratioP1;P1;durP2;ratioP2;P2;SDS_P1;SDS_P2;PMS_P1;PMS_P2;Temp;Humidity;BMP_temperature;BMP_pressure;BME280_temperature;BME280_humidity;BME280_pressure;Samples;Min_cycle;Max_cycle;Signal;HPM_P1;HPM_P2
2022/10/28 00:01:45;;;;;;;;;;;14.20;99.90;;;;;;6281052;22;20008;-64
2022/10/28 00:04:10;;;;;;;;;;;14.20;99.90;;;;;;6308513;22;19919;-64
2022/10/28 00:06:39;;;;;;;;;;;14.20;99.90;;;;;;6308204;22;19919;-65
2022/10/28 00:09:06;;;;;;;;;;;14.20;99.90;;;;;;6280925;22;19915;-65
2022/10/28 00:11:34;;;;;;;;;;;14.10;99.90;;;;;;6308193;22;19953;-65
2022/10/28 00:14:01;;;;;;;;;;;14.10;99.90;;;;;;6280772;22;20339;-66
2022/10/28 00:16:29;;;;;;;;;;;14.00;99.90;;;;;;6308029;22;20021;-66
2022/10/28 00:18:55;;;;;;;;;;;14.20;99.90;;;;;;6308198;22;19919;-65
2022/10/28 00:21:23;;;;;;;;;;;14.00;99.90;;;;;;6280921;22;19914;-64
2022/10/28 00:23:50;;;;;;;;;;;13.90;99.90;;;;;;6305961;22;19923;-65
2022/10/28 00:26:25;;;;;;;;;;;13.90;99.90;;;;;;6280823;22;19942;-65
2022/10/28 00:28:52;;;;;;;;;;;13.90;99.90;;;;;;6308483;22;20247;-65
2022/10/28 00:31:22;;;;;;;;;;;14.00;99.90;;;;;;6308088;22;19953;-65
2022/10/28 00:33:48;;;;;;;;;;;12.40;99.90;;;;;;6308453;22;19915;-64
2022/10/28 00:36:16;;;;;;;;;;;14.00;99.90;;;;;;6280596;22;19922;-65
2022/10/28 00:38:42;;;;;;;;;;;14.00;99.90;;;;;;6307999;22;19951;-65
2022/10/28 00:41:10;;;;;;;;;;;14.00;99.90;;;;;;6308338;22;19946;-65
2022/10/28 00:43:39;;;;;;;;;;;14.00;99.90;;;;;;6308371;22;20189;-65
2022/10/28 00:46:08;;;;;;;;;;;14.00;99.90;;;;;;6306157;22;19946;-65
2022/10/28 00:48:34;;;;;;;;;;;14.00;99.90;;;;;;6280979;22;19922;-64
2022/10/28 00:51:00;;;;;;;;;;;14.10;99.90;;;;;;6307917;22;19919;-65
2022/10/28 00:53:27;;;;;;;;;;;14.10;99.90;;;;;;6308136;22;19919;-65
2022/10/28 00:55:53;;;;;;;;;;;14.10;99.90;;;;;;6306220;22;19921;-64
2022/10/28 00:58:19;;;;;;;;;;;14.10;99.90;;;;;;6308248;22;19985;-65
2022/10/28 01:00:45;;;;;;;;;;;14.20;99.90;;;;;;6309339;22;19915;-64
2022/10/28 01:03:11;;;;;;;;;;;14.10;99.90;;;;;;6309796;22;19962;-64
2022/10/28 01:05:38;;;;;;;;;;;14.20;99.90;;;;;;6310336;22;19915;-64
2022/10/28 01:08:06;;;;;;;;;;;14.10;99.90;;;;;;6282582;22;19930;-65
2022/10/28 01:10:51;;;;;;;;;;;14.10;99.90;;;;;;6309831;22;20327;-65
2022/10/28 01:13:33;;;;;;;;;;;14.10;99.90;;;;;;6310360;22;19983;-65
2022/10/28 01:16:19;;;;;;;;;;;14.00;99.90;;;;;;6309951;22;19938;-65
2022/10/28 01:18:52;;;;;;;;;;;14.10;99.90;;;;;;6281699;22;19922;-65
2022/10/28 01:21:18;;;;;;;;;;;14.10;99.90;;;;;;6310245;22;19914;-65
2022/10/28 01:23:54;;;;;;;;;;;14.10;99.90;;;;;;6310143;22;19925;-65
2022/10/28 01:26:31;;;;;;;;;;;14.10;99.90;;;;;;6310029;22;19919;-64
2022/10/28 01:29:07;;;;;;;;;;;14.10;99.90;;;;;;6308742;22;20299;-64
2022/10/28 01:31:51;;;;;;;;;;;14.10;99.90;;;;;;6282331;22;19922;-64
2022/10/28 01:34:23;;;;;;;;;;;14.10;99.90;;;;;;6310239;22;20231;-65
2022/10/28 01:36:50;;;;;;;;;;;14.10;99.90;;;;;;6310599;22;20281;-65
2022/10/28 01:39:29;;;;;;;;;;;14.10;99.90;;;;;;6310196;22;20208;-65
2022/10/28 01:42:00;;;;;;;;;;;14.10;99.90;;;;;;6310011;22;19915;-65
2022/10/28 01:44:42;;;;;;;;;;;14.20;99.90;;;;;;6282343;22;20359;-65
2022/10/28 01:47:15;;;;;;;;;;;14.10;99.90;;;;;;6307985;22;19918;-64
2022/10/28 01:49:50;;;;;;;;;;;14.10;99.90;;;;;;6309494;22;20381;-65
2022/10/28 01:52:18;;;;;;;;;;;14.00;99.90;;;;;;6307980;22;20291;-65
2022/10/28 01:54:46;;;;;;;;;;;14.00;99.90;;;;;;6309915;22;20239;-65
2022/10/28 01:57:14;;;;;;;;;;;14.00;99.90;;;;;;6309983;22;19919;-65
2022/10/28 01:59:39;;;;;;;;;;;14.00;99.90;;;;;;6309765;22;19919;-64
2022/10/28 02:02:05;;;;;;;;;;;13.90;99.90;;;;;;6309802;22;20328;-65
2022/10/28 02:04:31;;;;;;;;;;;14.00;99.90;;;;;;6309631;22;20009;-65
2022/10/28 02:06:58;;;;;;;;;;;13.90;99.90;;;;;;6282244;22;19915;-65
2022/10/28 02:09:29;;;;;;;;;;;13.90;99.90;;;;;;6309818;22;19919;-65
2022/10/28 02:11:55;;;;;;;;;;;13.90;99.90;;;;;;6309556;22;19915;-65
2022/10/28 02:14:20;;;;;;;;;;;13.90;99.90;;;;;;6282068;22;19937;-65
2022/10/28 02:17:05;;;;;;;;;;;13.90;99.90;;;;;;6276802;22;19919;-65
2022/10/28 02:20:08;;;;;;;;;;;13.80;99.90;;;;;;6278785;22;19915;-65
2022/10/28 02:22:41;;;;;;;;;;;13.80;99.90;;;;;;6155071;23;19923;-65
2022/10/28 02:25:18;;;;;;;;;;;13.80;99.90;;;;;;6154866;23;19921;-65
2022/10/28 02:27:56;;;;;;;;;;;13.80;99.90;;;;;;6154971;23;19916;-64
2022/10/28 02:30:24;;;;;;;;;;;13.80;99.90;;;;;;6154908;23;19979;-64
2022/10/28 02:32:56;;;;;;;;;;;13.70;99.90;;;;;;6154878;23;19920;-65
2022/10/28 02:35:30;;;;;;;;;;;13.70;99.90;;;;;;6154931;23;19991;-65
2022/10/28 02:37:58;;;;;;;;;;;13.70;99.90;;;;;;6154855;23;19931;-66
2022/10/28 02:40:25;;;;;;;;;;;13.70;99.90;;;;;;6105747;23;20290;-66
2022/10/28 02:42:53;;;;;;;;;;;13.70;99.90;;;;;;6154867;23;19971;-66
2022/10/28 02:45:21;;;;;;;;;;;13.70;99.90;;;;;;6154636;23;19977;-64
2022/10/28 02:47:52;;;;;;;;;;;13.70;99.90;;;;;;6154807;23;19920;-65
2022/10/28 02:50:19;;;;;;;;;;;13.70;99.90;;;;;;6154627;23;20068;-65
2022/10/28 02:52:48;;;;;;;;;;;13.60;99.90;;;;;;6154747;23;19963;-64
2022/10/28 02:55:14;;;;;;;;;;;13.60;99.90;;;;;;6154671;23;20376;-64
2022/10/28 02:57:48;;;;;;;;;;;13.60;99.90;;;;;;6276222;22;19919;-64
2022/10/28 03:00:15;;;;;;;;;;;13.60;99.90;;;;;;6276524;22;19915;-64
2022/10/28 03:02:40;;;;;;;;;;;13.60;99.90;;;;;;6278023;22;19955;-64
2022/10/28 03:05:06;;;;;;;;;;;13.50;99.90;;;;;;6277724;22;19927;-65
2022/10/28 03:07:32;;;;;;;;;;;13.50;99.90;;;;;;6277871;22;19915;-65
2022/10/28 03:09:57;;;;;;;;;;;13.50;99.90;;;;;;6278153;22;19921;-64
2022/10/28 03:12:23;;;;;;;;;;;13.50;99.90;;;;;;6276204;22;20221;-65
2022/10/28 03:14:49;;;;;;;;;;;13.40;99.90;;;;;;6279839;22;20229;-65
2022/10/28 03:17:14;;;;;;;;;;;13.40;99.90;;;;;;6309209;22;19914;-64
2022/10/28 03:19:40;;;;;;;;;;;13.30;99.90;;;;;;6309096;22;20316;-64
2022/10/28 03:22:06;;;;;;;;;;;13.30;99.90;;;;;;6308789;22;19956;-64
2022/10/28 03:24:32;;;;;;;;;;;13.30;99.90;;;;;;6308942;22;20278;-64
2022/10/28 03:26:59;;;;;;;;;;;13.20;99.90;;;;;;6308829;22;19915;-64
2022/10/28 03:29:25;;;;;;;;;;;13.20;99.90;;;;;;6308513;22;19989;-64
2022/10/28 03:31:52;;;;;;;;;;;13.20;99.90;;;;;;6281246;22;19953;-64
2022/10/28 03:34:22;;;;;;;;;;;13.20;99.90;;;;;;6308662;22;19915;-64
2022/10/28 03:36:48;;;;;;;;;;;13.20;99.90;;;;;;6308878;22;19964;-64
2022/10/28 03:39:13;;;;;;;;;;;13.20;99.90;;;;;;6308653;22;20224;-64
2022/10/28 03:41:39;;;;;;;;;;;13.20;99.90;;;;;;6309062;22;19972;-64
2022/10/28 03:44:05;;;;;;;;;;;13.20;99.90;;;;;;6281055;22;19919;-64
2022/10/28 03:46:35;;;;;;;;;;;13.20;99.90;;;;;;6281277;22;20332;-64
2022/10/28 03:49:03;;;;;;;;;;;13.10;99.90;;;;;;6281310;22;19965;-64
2022/10/28 03:51:28;;;;;;;;;;;13.10;99.90;;;;;;6281082;22;19915;-64
2022/10/28 03:53:54;;;;;;;;;;;13.10;99.90;;;;;;6280985;22;19964;-64
2022/10/28 03:56:23;;;;;;;;;;;13.10;99.90;;;;;;6308727;22;19922;-64
2022/10/28 03:58:48;;;;;;;;;;;13.10;99.90;;;;;;6281079;22;19914;-64
2022/10/28 04:01:14;;;;;;;;;;;13.10;99.90;;;;;;6281056;22;19919;-64
2022/10/28 04:03:39;;;;;;;;;;;13.10;99.90;;;;;;6281241;22;20239;-64
2022/10/28 04:06:05;;;;;;;;;;;13.10;99.90;;;;;;6280855;22;20288;-64
2022/10/28 04:08:30;;;;;;;;;;;13.20;99.90;;;;;;6308916;22;19915;-64
2022/10/28 04:10:56;;;;;;;;;;;13.20;99.90;;;;;;6281369;22;20332;-64
2022/10/28 04:13:22;;;;;;;;;;;13.20;99.90;;;;;;6308073;22;20244;-64
2022/10/28 04:15:47;;;;;;;;;;;13.20;99.90;;;;;;6275207;22;20229;-73
2022/10/28 04:18:16;;;;;;;;;;;13.20;99.90;;;;;;6277305;22;19961;-73
2022/10/28 04:20:42;;;;;;;;;;;13.20;99.90;;;;;;6275554;22;19987;-73
2022/10/28 04:23:10;;;;;;;;;;;13.20;99.90;;;;;;6277161;22;19934;-73
2022/10/28 04:25:35;;;;;;;;;;;13.20;99.90;;;;;;6277051;22;19916;-74
2022/10/28 04:28:01;;;;;;;;;;;13.20;99.90;;;;;;6275417;22;19915;-73
2022/10/28 04:30:28;;;;;;;;;;;13.10;99.90;;;;;;6277397;22;20253;-73
2022/10/28 04:32:55;;;;;;;;;;;13.10;99.90;;;;;;6277076;22;19915;-72
2022/10/28 04:35:21;;;;;;;;;;;13.10;99.90;;;;;;6271603;22;19942;-72
2022/10/28 04:37:47;;;;;;;;;;;13.10;99.90;;;;;;6274027;22;19915;-73
2022/10/28 04:40:12;;;;;;;;;;;13.00;99.90;;;;;;6276439;22;19923;-73
2022/10/28 04:42:47;;;;;;;;;;;13.00;99.90;;;;;;6274667;22;19954;-73
2022/10/28 04:45:14;;;;;;;;;;;13.00;99.90;;;;;;6275879;22;19927;-64
2022/10/28 04:47:40;;;;;;;;;;;13.00;99.90;;;;;;6273723;22;19954;-64
2022/10/28 04:50:06;;;;;;;;;;;13.00;99.90;;;;;;6274729;22;19915;-64
2022/10/28 04:52:34;;;;;;;;;;;13.00;99.90;;;;;;6275597;22;19919;-72
2022/10/28 04:55:00;;;;;;;;;;;13.00;99.90;;;;;;6273483;22;20018;-72
2022/10/28 04:57:26;;;;;;;;;;;12.90;99.90;;;;;;6272374;22;19919;-72
2022/10/28 04:59:51;;;;;;;;;;;12.90;99.90;;;;;;6272425;22;19981;-73
2022/10/28 05:02:21;;;;;;;;;;;12.90;99.90;;;;;;6273560;22;19984;-73
2022/10/28 05:04:50;;;;;;;;;;;12.80;99.90;;;;;;6274568;22;20006;-64
2022/10/28 05:07:26;;;;;;;;;;;12.80;99.90;;;;;;6273732;22;19953;-72
2022/10/28 05:09:52;;;;;;;;;;;12.80;99.90;;;;;;6272136;22;19915;-65
2022/10/28 05:12:21;;;;;;;;;;;12.80;99.90;;;;;;6275022;22;20317;-64
2022/10/28 05:14:48;;;;;;;;;;;12.80;99.90;;;;;;6277448;22;19922;-65
2022/10/28 05:17:14;;;;;;;;;;;12.70;99.90;;;;;;6279792;22;19941;-65
2022/10/28 05:19:44;;;;;;;;;;;12.70;99.90;;;;;;6307582;22;19923;-65
2022/10/28 05:22:09;;;;;;;;;;;12.70;99.90;;;;;;6308178;22;19918;-64
2022/10/28 05:24:35;;;;;;;;;;;12.70;99.90;;;;;;6280278;22;19984;-64
2022/10/28 05:27:01;;;;;;;;;;;12.70;99.90;;;;;;6306558;22;19915;-64
2022/10/28 05:29:30;;;;;;;;;;;12.60;99.90;;;;;;6280470;22;19919;-64
2022/10/28 05:31:55;;;;;;;;;;;12.60;99.90;;;;;;6308001;22;19949;-64
2022/10/28 05:34:24;;;;;;;;;;;12.60;99.90;;;;;;6308029;22;19980;-65
2022/10/28 05:36:50;;;;;;;;;;;12.60;99.90;;;;;;6307912;22;19914;-64
2022/10/28 05:39:16;;;;;;;;;;;12.50;99.90;;;;;;6308002;22;20328;-64
2022/10/28 05:41:41;;;;;;;;;;;12.50;99.90;;;;;;6308010;22;19915;-64
2022/10/28 05:44:08;;;;;;;;;;;12.50;99.90;;;;;;6307463;22;19926;-69
2022/10/28 05:46:34;;;;;;;;;;;12.50;99.90;;;;;;6281415;22;19922;-67
2022/10/28 05:48:59;;;;;;;;;;;12.50;99.90;;;;;;6309588;22;19990;-68
2022/10/28 05:51:27;;;;;;;;;;;12.50;99.90;;;;;;6309430;22;19925;-66
2022/10/28 05:53:53;;;;;;;;;;;13.70;99.90;;;;;;6308618;22;19937;-66
2022/10/28 05:56:19;;;;;;;;;;;12.50;99.90;;;;;;6282178;22;19915;-64
2022/10/28 05:58:44;;;;;;;;;;;12.40;99.90;;;;;;6282183;22;20248;-64
2022/10/28 06:01:13;;;;;;;;;;;12.40;99.90;;;;;;6309705;22;19992;-64
2022/10/28 06:03:42;;;;;;;;;;;12.40;99.90;;;;;;6309672;22;19918;-64
2022/10/28 06:06:09;;;;;;;;;;;12.30;99.90;;;;;;6309524;22;20231;-64
2022/10/28 06:08:34;;;;;;;;;;;12.30;99.90;;;;;;6309224;22;19950;-64
2022/10/28 06:11:00;;;;;;;;;;;12.20;99.90;;;;;;6281420;22;19919;-64
2022/10/28 06:13:26;;;;;;;;;;;12.20;99.90;;;;;;6281800;22;19950;-64
2022/10/28 06:15:55;;;;;;;;;;;12.10;99.90;;;;;;6307481;22;19918;-64
2022/10/28 06:18:21;;;;;;;;;;;12.10;99.90;;;;;;6282041;22;20243;-64
2022/10/28 06:20:56;;;;;;;;;;;12.20;99.90;;;;;;6309305;22;19926;-64
2022/10/28 06:23:22;;;;;;;;;;;12.10;99.90;;;;;;6308950;22;19945;-64
2022/10/28 06:25:48;;;;;;;;;;;12.10;99.90;;;;;;6279757;22;19918;-73
2022/10/28 06:28:14;;;;;;;;;;;12.10;99.90;;;;;;6279805;22;20346;-73
2022/10/28 06:30:40;;;;;;;;;;;12.10;99.90;;;;;;6279729;22;19919;-72
2022/10/28 06:33:06;;;;;;;;;;;12.10;99.90;;;;;;6306794;22;19919;-72
2022/10/28 06:35:32;;;;;;;;;;;12.10;99.90;;;;;;6306602;22;19938;-72
2022/10/28 06:37:58;;;;;;;;;;;12.10;99.90;;;;;;6307140;22;19922;-73
2022/10/28 06:40:24;;;;;;;;;;;12.20;99.90;;;;;;6309292;22;19915;-73
2022/10/28 06:42:56;;;;;;;;;;;12.10;99.90;;;;;;6309176;22;19926;-64
2022/10/28 06:45:24;;;;;;;;;;;12.20;99.90;;;;;;6308780;22;19958;-64
2022/10/28 06:47:55;;;;;;;;;;;12.20;99.90;;;;;;6308874;22;20330;-64
2022/10/28 06:50:21;;;;;;;;;;;12.20;99.90;;;;;;6255971;22;19946;-64
2022/10/28 06:52:46;;;;;;;;;;;12.20;99.90;;;;;;6307631;22;19915;-64
2022/10/28 06:55:14;;;;;;;;;;;12.20;99.90;;;;;;6309051;22;19918;-64
2022/10/28 06:57:39;;;;;;;;;;;12.20;99.90;;;;;;6308457;22;19929;-64
2022/10/28 07:00:06;;;;;;;;;;;12.20;99.90;;;;;;6308380;22;20220;-64
2022/10/28 07:02:31;;;;;;;;;;;12.30;99.90;;;;;;6309105;22;19964;-64
2022/10/28 07:04:57;;;;;;;;;;;12.30;99.90;;;;;;6308417;22;19973;-64
2022/10/28 07:07:25;;;;;;;;;;;12.30;99.90;;;;;;6281465;22;19989;-64
2022/10/28 07:09:53;;;;;;;;;;;12.40;99.90;;;;;;6309081;22;19915;-73
2022/10/28 07:12:19;;;;;;;;;;;12.40;99.90;;;;;;6309234;22;19969;-72
2022/10/28 07:14:45;;;;;;;;;;;12.50;99.90;;;;;;6308526;22;19915;-71
2022/10/28 07:17:10;;;;;;;;;;;12.60;99.90;;;;;;6309166;22;19915;-73
2022/10/28 07:19:37;;;;;;;;;;;12.60;99.90;;;;;;6308609;22;20243;-73
2022/10/28 07:22:03;;;;;;;;;;;12.70;99.90;;;;;;6307505;22;20025;-73
2022/10/28 07:24:28;;;;;;;;;;;12.70;99.90;;;;;;6281234;22;20376;-74
2022/10/28 07:26:54;;;;;;;;;;;12.80;99.90;;;;;;6281315;22;19922;-73
2022/10/28 07:29:20;;;;;;;;;;;12.90;99.90;;;;;;6308970;22;19941;-73
2022/10/28 07:31:45;;;;;;;;;;;13.10;99.90;;;;;;6309004;22;19915;-72
2022/10/28 07:34:12;;;;;;;;;;;13.20;99.90;;;;;;6281210;22;19914;-72
2022/10/28 07:36:38;;;;;;;;;;;13.40;99.90;;;;;;6309091;22;19968;-73
2022/10/28 07:39:03;;;;;;;;;;;13.60;99.90;;;;;;6308761;22;19915;-73
2022/10/28 07:41:29;;;;;;;;;;;13.80;99.90;;;;;;6281057;22;19942;-73
2022/10/28 07:43:59;;;;;;;;;;;14.00;99.90;;;;;;6308777;22;20224;-74
2022/10/28 07:46:28;;;;;;;;;;;14.10;99.90;;;;;;6308878;22;20284;-73
2022/10/28 07:48:55;;;;;;;;;;;14.20;99.90;;;;;;6308703;22;19919;-73
2022/10/28 07:51:21;;;;;;;;;;;14.40;99.90;;;;;;6308832;22;19982;-73
2022/10/28 07:53:48;;;;;;;;;;;14.60;99.90;;;;;;6308648;22;20247;-73
2022/10/28 07:56:18;;;;;;;;;;;14.70;99.90;;;;;;6308757;22;19915;-64
2022/10/28 07:58:44;;;;;;;;;;;14.80;99.90;;;;;;6306731;22;19915;-64
2022/10/28 08:01:11;;;;;;;;;;;14.90;99.90;;;;;;6308647;22;19926;-64
2022/10/28 08:03:37;;;;;;;;;;;15.10;99.90;;;;;;6280934;22;19919;-64
2022/10/28 08:06:04;;;;;;;;;;;15.20;99.90;;;;;;6280970;22;19921;-64
2022/10/28 08:08:33;;;;;;;;;;;15.50;99.90;;;;;;6308516;22;19918;-64
2022/10/28 08:11:12;;;;;;;;;;;15.50;99.90;;;;;;6308750;22;19923;-64
2022/10/28 08:13:39;;;;;;;;;;;15.50;99.90;;;;;;6307060;22;19989;-64
2022/10/28 08:16:05;;;;;;;;;;;15.60;99.90;;;;;;6308136;22;19919;-64
2022/10/28 08:18:32;;;;;;;;;;;15.80;99.90;;;;;;6308623;22;19915;-65
2022/10/28 08:20:59;;;;;;;;;;;15.80;99.90;;;;;;6280752;22;19915;-64
2022/10/28 08:23:24;;;;;;;;;;;15.90;99.90;;;;;;6280756;22;19915;-64
2022/10/28 08:25:53;;;;;;;;;;;16.10;99.90;;;;;;6308375;22;19968;-64
2022/10/28 08:28:21;;;;;;;;;;;16.20;99.90;;;;;;6306181;22;19923;-64
2022/10/28 08:30:47;;;;;;;;;;;16.30;99.90;;;;;;6281223;22;20289;-64
2022/10/28 08:33:17;;;;;;;;;;;16.50;99.90;;;;;;6308355;22;19915;-64
2022/10/28 08:35:48;;;;;;;;;;;16.50;99.90;;;;;;6280609;22;20224;-63
2022/10/28 08:38:13;;;;;;;;;;;16.60;99.90;;;;;;6308363;22;19921;-60
2022/10/28 08:40:58;;;;;;;;;;;16.70;99.90;;;;;;6308293;22;19950;-63
2022/10/28 08:43:30;;;;;;;;;;;16.80;99.90;;;;;;6308330;22;19919;-64
2022/10/28 08:46:00;;;;;;;;;;;17.00;99.90;;;;;;6308390;22;19922;-63
2022/10/28 08:48:33;;;;;;;;;;;17.30;99.90;;;;;;6280678;22;19919;-63
2022/10/28 08:51:10;;;;;;;;;;;17.70;99.90;;;;;;6308336;22;19915;-63
2022/10/28 08:53:53;;;;;;;;;;;18.10;99.90;;;;;;6308141;22;19922;-63
2022/10/28 08:56:26;;;;;;;;;;;18.50;99.90;;;;;;6280383;22;20255;-63
2022/10/28 08:58:55;;;;;;;;;;;18.80;99.90;;;;;;6308401;22;20255;-64
2022/10/28 09:01:31;;;;;;;;;;;19.00;99.90;;;;;;6307808;22;20347;-63
2022/10/28 09:03:57;;;;;;;;;;;19.20;99.90;;;;;;6308286;22;19984;-63
2022/10/28 09:06:23;;;;;;;;;;;19.40;99.90;;;;;;6307935;22;20242;-63
2022/10/28 09:08:49;;;;;;;;;;;19.60;99.90;;;;;;6280221;22;19986;-63
2022/10/28 09:11:27;;;;;;;;;;;19.60;99.90;;;;;;6307851;22;19914;-63
2022/10/28 09:14:16;;;;;;;;;;;19.60;99.90;;;;;;6308002;22;19929;-63
2022/10/28 09:16:46;;;;;;;;;;;19.70;99.90;;;;;;6153215;23;20349;-63
2022/10/28 09:19:14;;;;;;;;;;;19.70;99.90;;;;;;6153507;23;19970;-63
2022/10/28 09:21:58;;;;;;;;;;;19.80;99.90;;;;;;6153539;23;19920;-63
2022/10/28 09:24:40;;;;;;;;;;;19.80;99.90;;;;;;6130913;23;19928;-63
2022/10/28 09:27:26;;;;;;;;;;;19.80;99.90;;;;;;6155330;23;19916;-63
2022/10/28 09:30:10;;;;;;;;;;;19.70;99.90;;;;;;6153473;23;19995;-63
2022/10/28 09:32:48;;;;;;;;;;;19.70;99.90;;;;;;6152724;23;19916;-63
2022/10/28 09:35:18;;;;;;;;;;;19.70;99.90;;;;;;6128320;23;19923;-63
2022/10/28 09:37:52;;;;;;;;;;;19.70;99.90;;;;;;6155275;23;20269;-63
2022/10/28 09:40:22;;;;;;;;;;;19.60;99.90;;;;;;6155303;23;20326;-63
2022/10/28 09:42:57;;;;;;;;;;;19.50;99.90;;;;;;6155643;23;19917;-63
2022/10/28 09:45:26;;;;;;;;;;;19.50;99.90;;;;;;6155393;23;19920;-63
2022/10/28 09:48:00;;;;;;;;;;;19.40;99.90;;;;;;6155371;23;19976;-63
2022/10/28 09:50:30;;;;;;;;;;;19.40;99.90;;;;;;6155319;23;19967;-63
2022/10/28 09:53:31;;;;;;;;;;;19.40;99.90;;;;;;6184015;22;19915;-63
2022/10/28 09:55:57;;;;;;;;;;;19.40;99.90;;;;;;6155335;23;19916;-63
2022/10/28 09:58:22;;;;;;;;;;;19.40;99.90;;;;;;6155290;23;19938;-63
2022/10/28 10:00:48;;;;;;;;;;;19.40;99.90;;;;;;6155301;23;19940;-63
2022/10/28 10:03:15;;;;;;;;;;;19.40;99.90;;;;;;6129995;23;19978;-64
2022/10/28 10:05:43;;;;;;;;;;;19.40;99.90;;;;;;6155289;23;20394;-63
2022/10/28 10:08:11;;;;;;;;;;;19.30;99.90;;;;;;6155203;23;20253;-64
2022/10/28 10:10:52;;;;;;;;;;;19.30;99.90;;;;;;6155321;23;19967;-63
2022/10/28 10:13:23;;;;;;;;;;;19.30;99.90;;;;;;6155104;23;19917;-64
2022/10/28 10:15:57;;;;;;;;;;;19.30;99.90;;;;;;6154837;23;20360;-63
2022/10/28 10:18:29;;;;;;;;;;;19.30;99.90;;;;;;6155075;23;19917;-64
2022/10/28 10:20:58;;;;;;;;;;;19.30;99.90;;;;;;6155007;23;19917;-64
2022/10/28 10:23:31;;;;;;;;;;;19.20;99.90;;;;;;6154921;23;19917;-64
2022/10/28 10:25:58;;;;;;;;;;;19.30;99.90;;;;;;6154859;23;19917;-64
2022/10/28 10:28:28;;;;;;;;;;;19.40;99.90;;;;;;6154628;23;19924;-63
2022/10/28 10:30:56;;;;;;;;;;;19.40;99.90;;;;;;6240108;23;19916;-64
2022/10/28 10:33:30;;;;;;;;;;;19.40;99.90;;;;;;6246735;22;20378;-64
2022/10/28 10:35:56;;;;;;;;;;;19.40;99.90;;;;;;6248031;22;20254;-64
2022/10/28 10:38:22;;;;;;;;;;;19.50;99.90;;;;;;6247578;22;19916;-64
2022/10/28 10:40:49;;;;;;;;;;;19.60;99.90;;;;;;6246119;23;19923;-64
2022/10/28 10:43:34;;;;;;;;;;;19.70;99.90;;;;;;6245699;23;19920;-64
2022/10/28 10:46:05;;;;;;;;;;;19.80;99.90;;;;;;6248163;22;19916;-64
2022/10/28 10:48:34;;;;;;;;;;;19.80;99.90;;;;;;6247196;22;19916;-61
2022/10/28 10:51:19;;;;;;;;;;;20.00;99.90;;;;;;6246931;22;19915;-63
2022/10/28 10:53:47;;;;;;;;;;;19.90;99.90;;;;;;6245771;23;19919;-64
2022/10/28 10:56:21;;;;;;;;;;;20.00;99.90;;;;;;6247511;22;20271;-66
2022/10/28 10:58:49;;;;;;;;;;;20.00;99.90;;;;;;6247747;22;19916;-64
2022/10/28 11:01:18;;;;;;;;;;;20.00;99.90;;;;;;6247069;22;19922;-64
2022/10/28 11:03:48;;;;;;;;;;;20.10;99.90;;;;;;6247499;22;19998;-64
2022/10/28 11:06:19;;;;;;;;;;;20.10;99.90;;;;;;6247501;22;19923;-65
2022/10/28 11:08:44;;;;;;;;;;;20.10;99.90;;;;;;6245753;23;19961;-63
2022/10/28 11:11:12;;;;;;;;;;;20.10;99.90;;;;;;6247670;22;19994;-63
2022/10/28 11:13:39;;;;;;;;;;;20.20;99.90;;;;;;6247365;22;19915;-63
2022/10/28 11:16:16;;;;;;;;;;;20.20;99.90;;;;;;6283056;22;19919;-63
2022/10/28 11:18:43;;;;;;;;;;;20.20;99.90;;;;;;6281335;22;19923;-64
2022/10/28 11:21:14;;;;;;;;;;;20.30;99.90;;;;;;6308542;22;20324;-64
2022/10/28 11:23:48;;;;;;;;;;;20.30;99.90;;;;;;6308922;22;19967;-67
2022/10/28 11:26:15;;;;;;;;;;;20.30;99.90;;;;;;6308397;22;19922;-64
2022/10/28 11:29:00;;;;;;;;;;;20.40;99.90;;;;;;6308849;22;19922;-64
2022/10/28 11:31:39;;;;;;;;;;;20.40;99.90;;;;;;6308647;22;20339;-64
2022/10/28 11:34:22;;;;;;;;;;;20.50;99.90;;;;;;6308995;22;20325;-64
2022/10/28 11:36:48;;;;;;;;;;;20.60;99.90;;;;;;6308400;22;19953;-67
2022/10/28 11:39:22;;;;;;;;;;;20.80;99.90;;;;;;6308511;22;19915;-64
2022/10/28 11:41:47;;;;;;;;;;;20.80;99.90;;;;;;6308639;22;19965;-64
2022/10/28 11:44:22;;;;;;;;;;;20.90;99.90;;;;;;6308353;22;20308;-64
2022/10/28 11:47:06;;;;;;;;;;;21.00;99.90;;;;;;6308703;22;19957;-64
2022/10/28 11:49:41;;;;;;;;;;;21.00;99.90;;;;;;6308303;22;20411;-64
2022/10/28 11:52:16;;;;;;;;;;;21.00;99.90;;;;;;6308742;22;19915;-64
2022/10/28 11:54:49;;;;;;;;;;;21.00;99.90;;;;;;6309043;22;19915;-64
2022/10/28 11:57:17;;;;;;;;;;;21.10;99.90;;;;;;6308762;22;19915;-64
2022/10/28 11:59:43;;;;;;;;;;;21.10;99.90;;;;;;6308658;22;19965;-64
2022/10/28 12:02:11;;;;;;;;;;;21.20;99.90;;;;;;6308360;22;19915;-64
2022/10/28 12:04:52;;;;;;;;;;;21.20;99.90;;;;;;6308267;22;20353;-64
2022/10/28 12:07:24;;;;;;;;;;;21.30;99.90;;;;;;6280640;22;20296;-64
2022/10/28 12:10:02;;;;;;;;;;;21.40;99.90;;;;;;6308322;22;20071;-64
2022/10/28 12:12:35;;;;;;;;;;;21.40;99.90;;;;;;6307983;22;19918;-64
2022/10/28 12:15:01;;;;;;;;;;;21.40;99.90;;;;;;6308084;22;19994;-64
2022/10/28 12:17:26;;;;;;;;;;;21.40;99.90;;;;;;6281259;22;19943;-64
2022/10/28 12:19:58;;;;;;;;;;;21.40;99.90;;;;;;6308032;22;19915;-64
2022/10/28 12:22:29;;;;;;;;;;;21.40;99.90;;;;;;6280670;22;19915;-64
2022/10/28 12:24:57;;;;;;;;;;;21.40;99.90;;;;;;6280917;22;19961;-66
2022/10/28 12:27:33;;;;;;;;;;;21.30;99.90;;;;;;6280476;22;19921;-66
2022/10/28 12:30:02;;;;;;;;;;;21.40;99.90;;;;;;6306495;22;19915;-66
2022/10/28 12:32:32;;;;;;;;;;;21.40;99.90;;;;;;6280779;22;19915;-66
2022/10/28 12:35:06;;;;;;;;;;;21.40;99.90;;;;;;6308456;22;19919;-66
2022/10/28 12:38:05;;;;;;;;;;;21.40;99.90;;;;;;6308444;22;19915;-66
2022/10/28 12:40:34;;;;;;;;;;;21.40;99.90;;;;;;6308415;22;20289;-66
2022/10/28 12:43:12;;;;;;;;;;;21.50;99.90;;;;;;6308451;22;20294;-66
2022/10/28 12:45:42;;;;;;;;;;;21.50;99.90;;;;;;6280772;22;19957;-66
2022/10/28 12:48:26;;;;;;;;;;;21.50;99.90;;;;;;6280828;22;19915;-64
2022/10/28 12:51:11;;;;;;;;;;;21.50;99.90;;;;;;6308384;22;19946;-64
2022/10/28 12:53:45;;;;;;;;;;;21.50;99.90;;;;;;6305666;22;20251;-64
2022/10/28 12:56:18;;;;;;;;;;;21.50;99.90;;;;;;6309087;22;20351;-64
2022/10/28 12:58:50;;;;;;;;;;;21.50;99.90;;;;;;6283131;22;20244;-64
2022/10/28 13:01:21;;;;;;;;;;;21.50;99.90;;;;;;6310435;22;19918;-64
2022/10/28 13:03:48;;;;;;;;;;;21.50;99.90;;;;;;6310431;22;20255;-64
2022/10/28 13:06:35;;;;;;;;;;;21.40;99.90;;;;;;6309927;22;19922;-64
2022/10/28 13:09:19;;;;;;;;;;;21.80;99.90;;;;;;6310382;22;19915;-64
2022/10/28 13:12:07;;;;;;;;;;;21.40;99.90;;;;;;6310448;22;20277;-64
2022/10/28 13:14:51;;;;;;;;;;;21.40;99.90;;;;;;6309952;22;19915;-64
2022/10/28 13:17:40;;;;;;;;;;;21.40;99.90;;;;;;6309842;22;20023;-65
2022/10/28 13:20:13;;;;;;;;;;;21.30;99.90;;;;;;6310171;22;19950;-64
2022/10/28 13:22:55;;;;;;;;;;;21.30;99.90;;;;;;6282454;22;19915;-65
2022/10/28 13:25:36;;;;;;;;;;;21.20;99.90;;;;;;6309657;22;19958;-64
2022/10/28 13:28:11;;;;;;;;;;;21.20;99.90;;;;;;6310095;22;19915;-64
2022/10/28 13:30:50;;;;;;;;;;;21.20;99.90;;;;;;6281594;22;19919;-64
2022/10/28 13:33:20;;;;;;;;;;;21.20;99.90;;;;;;6310008;22;20307;-63
2022/10/28 13:35:46;;;;;;;;;;;21.20;99.90;;;;;;6309873;22;19915;-64
2022/10/28 13:38:19;;;;;;;;;;;21.20;99.90;;;;;;6309879;22;19967;-64
2022/10/28 13:40:58;;;;;;;;;;;21.20;99.90;;;;;;6310227;22;19914;-63
2022/10/28 13:43:42;;;;;;;;;;;21.30;99.90;;;;;;6307796;22;19914;-64
2022/10/28 13:46:08;;;;;;;;;;;21.20;99.90;;;;;;6309686;22;19915;-64
2022/10/28 13:48:39;;;;;;;;;;;21.40;99.90;;;;;;6310152;22;19915;-64
2022/10/28 13:51:09;;;;;;;;;;;21.30;99.90;;;;;;6310090;22;19915;-64
2022/10/28 13:53:40;;;;;;;;;;;21.30;99.90;;;;;;6282203;22;19919;-64
2022/10/28 13:56:44;;;;;;;;;;;21.30;99.90;;;;;;6309425;22;19957;-63
2022/10/28 13:59:21;;;;;;;;;;;21.20;99.90;;;;;;6155146;23;19928;-64
2022/10/28 14:01:47;;;;;;;;;;;21.30;99.90;;;;;;6155188;23;19967;-64
2022/10/28 14:04:21;;;;;;;;;;;21.20;99.90;;;;;;6153983;23;19920;-64
2022/10/28 14:06:47;;;;;;;;;;;21.10;99.90;;;;;;6154839;23;19928;-64
2022/10/28 14:09:27;;;;;;;;;;;21.10;99.90;;;;;;6130596;23;19917;-64
2022/10/28 14:12:12;;;;;;;;;;;21.10;99.90;;;;;;6155264;23;20300;-63
2022/10/28 14:14:38;;;;;;;;;;;21.00;99.90;;;;;;6154848;23;19916;-64
2022/10/28 14:17:04;;;;;;;;;;;20.90;99.90;;;;;;6154921;23;19967;-63
2022/10/28 14:19:30;;;;;;;;;;;20.90;99.90;;;;;;6130581;23;19962;-63
2022/10/28 14:21:55;;;;;;;;;;;20.80;99.90;;;;;;6155023;23;19917;-64
2022/10/28 14:24:32;;;;;;;;;;;20.80;99.90;;;;;;6130290;23;20024;-63
2022/10/28 14:27:07;;;;;;;;;;;20.80;99.90;;;;;;6155065;23;19979;-63
2022/10/28 14:29:41;;;;;;;;;;;20.70;99.90;;;;;;6187212;23;19938;-63
2022/10/28 14:32:27;;;;;;;;;;;20.70;99.90;;;;;;6247983;22;19916;-65
2022/10/28 14:34:53;;;;;;;;;;;20.60;99.90;;;;;;6247728;23;19916;-66